createdAt,value
2022-09-30T00:02:05.757Z,6.90
2022-09-30T00:04:35.816Z,6.80
2022-09-30T00:07:07.539Z,6.80
2022-09-30T00:09:38.026Z,6.70
2022-09-30T00:12:08.336Z,6.60
2022-09-30T00:14:38.511Z,6.70
2022-09-30T00:17:08.743Z,6.80
2022-09-30T00:19:39.743Z,6.60
2022-09-30T00:22:13.096Z,6.50
2022-09-30T00:24:43.786Z,6.50
2022-09-30T00:27:19.833Z,6.40
2022-09-30T00:29:49.876Z,6.40
2022-09-30T00:32:21.234Z,6.20
2022-09-30T00:34:54.496Z,6.10
2022-09-30T00:37:26.691Z,6.10
2022-09-30T00:39:56.714Z,6.20
2022-09-30T00:42:31.138Z,6.10
2022-09-30T00:45:08.937Z,6.10
2022-09-30T00:47:47.928Z,6.00
2022-09-30T00:50:30.423Z,5.90
2022-09-30T00:53:19.292Z,5.80
2022-09-30T00:56:04.229Z,5.80
2022-09-30T00:58:39.469Z,5.70
2022-09-30T01:01:10.718Z,5.70
2022-09-30T01:03:43.689Z,5.70
2022-09-30T01:06:15.990Z,5.60
2022-09-30T01:08:49.340Z,5.60
2022-09-30T01:11:21.097Z,5.50
2022-09-30T01:13:55.253Z,5.50
2022-09-30T01:16:35.669Z,5.60
2022-09-30T01:19:41.452Z,5.50
2022-09-30T01:22:33.931Z,5.50
2022-09-30T01:25:36.517Z,5.50
2022-09-30T01:28:51.865Z,5.50
2022-09-30T01:31:44.529Z,5.30
2022-09-30T01:34:21.379Z,5.40
2022-09-30T01:37:05.358Z,5.40
2022-09-30T01:39:44.593Z,5.50
2022-09-30T01:42:21.585Z,5.40
2022-09-30T01:45:03.440Z,5.40
2022-09-30T01:47:45.071Z,5.30
2022-09-30T01:50:22.478Z,5.30
2022-09-30T01:52:58.696Z,5.30
2022-09-30T01:55:34.891Z,5.30
2022-09-30T01:58:11.973Z,5.20
2022-09-30T02:00:46.666Z,5.10
2022-09-30T02:03:22.974Z,5.00
2022-09-30T02:05:58.446Z,5.00
2022-09-30T02:08:32.477Z,5.10
2022-09-30T02:11:07.784Z,5.00
2022-09-30T02:13:46.267Z,4.90
2022-09-30T02:16:22.303Z,5.00
2022-09-30T02:18:56.558Z,4.90
2022-09-30T02:21:30.339Z,4.90
2022-09-30T02:24:06.509Z,4.90
2022-09-30T02:26:41.397Z,4.90
2022-09-30T02:29:15.467Z,4.80
2022-09-30T02:31:48.569Z,4.70
2022-09-30T02:34:25.028Z,4.70
2022-09-30T02:37:18.478Z,4.70
2022-09-30T02:39:53.755Z,4.60
2022-09-30T02:42:29.169Z,4.60
2022-09-30T02:45:03.310Z,4.60
2022-09-30T02:47:47.192Z,4.50
2022-09-30T02:50:25.194Z,4.50
2022-09-30T02:53:10.337Z,4.50
2022-09-30T02:55:50.325Z,4.60
2022-09-30T02:58:23.390Z,4.60
2022-09-30T03:00:56.277Z,4.50
2022-09-30T03:03:30.164Z,4.50
2022-09-30T03:06:02.051Z,4.50
2022-09-30T03:08:32.143Z,4.50
2022-09-30T03:11:02.593Z,4.40
2022-09-30T03:13:57.112Z,4.30
2022-09-30T03:16:42.103Z,4.20
2022-09-30T03:19:29.920Z,4.10
2022-09-30T03:22:21.506Z,4.20
2022-09-30T03:25:10.267Z,4.20
2022-09-30T03:27:52.509Z,4.10
2022-09-30T03:30:27.517Z,4.20
2022-09-30T03:33:12.683Z,4.20
2022-09-30T03:35:50.923Z,4.20
2022-09-30T03:38:32.317Z,4.10
2022-09-30T03:41:09.406Z,4.00
2022-09-30T03:43:45.031Z,4.00
2022-09-30T03:46:22.056Z,4.00
2022-09-30T03:48:56.441Z,4.00
2022-09-30T03:51:27.204Z,3.90
2022-09-30T03:54:00.705Z,3.90
2022-09-30T03:56:32.436Z,3.80
2022-09-30T03:59:03.379Z,3.80
2022-09-30T04:01:33.723Z,3.80
2022-09-30T04:04:04.272Z,3.80
2022-09-30T04:06:34.332Z,3.80
2022-09-30T04:09:06.104Z,4.00
2022-09-30T04:11:36.428Z,4.00
2022-09-30T04:14:06.971Z,3.90
2022-09-30T04:16:37.174Z,3.90
2022-09-30T04:19:07.397Z,3.80
2022-09-30T04:21:37.482Z,3.80
2022-09-30T04:24:09.675Z,3.80
2022-09-30T04:26:39.750Z,3.80
2022-09-30T04:29:09.884Z,3.70
2022-09-30T04:31:39.925Z,3.60
2022-09-30T04:34:12.441Z,3.60
2022-09-30T04:36:42.482Z,3.60
2022-09-30T04:39:14.731Z,3.60
2022-09-30T04:41:44.869Z,3.60
2022-09-30T04:44:14.905Z,3.50
2022-09-30T04:46:45.069Z,3.50
2022-09-30T04:49:15.122Z,3.60
2022-09-30T04:51:46.858Z,3.60
2022-09-30T04:54:18.725Z,3.50
2022-09-30T04:56:48.863Z,3.50
2022-09-30T04:59:18.984Z,3.40
2022-09-30T05:01:49.086Z,3.40
2022-09-30T05:04:19.609Z,3.60
2022-09-30T05:06:50.423Z,3.50
2022-09-30T05:09:22.646Z,3.50
2022-09-30T05:11:52.906Z,3.40
2022-09-30T05:14:23.401Z,3.40
2022-09-30T05:16:53.768Z,3.40
2022-09-30T05:19:24.064Z,3.30
2022-09-30T05:21:55.334Z,3.30
2022-09-30T05:24:27.366Z,3.40
2022-09-30T05:26:57.678Z,3.30
2022-09-30T05:29:28.083Z,3.30
2022-09-30T05:31:58.793Z,3.30
2022-09-30T05:34:29.154Z,3.30
2022-09-30T05:36:59.164Z,3.20
2022-09-30T05:39:31.989Z,3.10
2022-09-30T05:42:02.329Z,3.10
2022-09-30T05:44:32.407Z,3.10
2022-09-30T05:47:02.777Z,3.10
2022-09-30T05:49:35.666Z,3.00
2022-09-30T05:52:05.937Z,3.00
2022-09-30T05:54:37.629Z,2.90
2022-09-30T05:57:08.471Z,2.90
2022-09-30T05:59:39.150Z,3.00
2022-09-30T06:02:11.077Z,3.20
2022-09-30T06:04:41.368Z,3.10
2022-09-30T06:07:11.581Z,3.10
2022-09-30T06:09:43.304Z,3.00
2022-09-30T06:12:13.430Z,3.00
2022-09-30T06:14:43.469Z,3.10
2022-09-30T06:17:13.632Z,3.10
2022-09-30T06:19:43.805Z,3.00
2022-09-30T06:22:13.801Z,2.90
2022-09-30T06:24:45.475Z,3.00
2022-09-30T06:27:15.841Z,2.90
2022-09-30T06:29:45.949Z,2.90
2022-09-30T06:32:15.923Z,2.90
2022-09-30T06:34:46.102Z,2.80
2022-09-30T06:37:16.849Z,2.80
2022-09-30T06:39:49.550Z,2.90
2022-09-30T06:42:20.092Z,2.90
2022-09-30T06:44:53.409Z,2.90
2022-09-30T06:47:25.810Z,2.90
2022-09-30T06:49:59.735Z,2.80
2022-09-30T06:52:30.108Z,2.80
2022-09-30T06:55:02.142Z,2.80
2022-09-30T06:57:32.321Z,2.70
2022-09-30T07:00:02.373Z,2.70
2022-09-30T07:02:35.185Z,2.70
2022-09-30T07:05:05.586Z,2.80
2022-09-30T07:07:36.539Z,2.80
2022-09-30T07:10:09.126Z,2.70
2022-09-30T07:12:39.134Z,2.70
2022-09-30T07:15:13.758Z,2.70
2022-09-30T07:17:43.990Z,2.70
2022-09-30T07:20:15.472Z,2.70
2022-09-30T07:22:45.814Z,2.60
2022-09-30T07:25:18.832Z,2.60
2022-09-30T07:27:48.795Z,2.60
2022-09-30T07:30:26.775Z,2.50
2022-09-30T07:32:57.325Z,2.40
2022-09-30T07:35:27.451Z,2.40
2022-09-30T07:37:57.847Z,2.50
2022-09-30T07:40:32.258Z,2.60
2022-09-30T07:43:02.464Z,2.50
2022-09-30T07:45:32.558Z,2.60
2022-09-30T07:48:02.822Z,2.60
2022-09-30T07:50:32.890Z,2.50
2022-09-30T07:53:03.078Z,2.40
2022-09-30T07:55:34.752Z,2.40
2022-09-30T07:58:06.848Z,2.30
2022-09-30T08:00:42.601Z,2.30
2022-09-30T08:03:13.040Z,2.40
2022-09-30T08:05:45.377Z,2.50
2022-09-30T08:08:15.923Z,2.50
2022-09-30T08:10:47.801Z,2.50
2022-09-30T08:13:18.100Z,2.50
2022-09-30T08:15:48.718Z,2.50
2022-09-30T08:18:19.091Z,2.50
2022-09-30T08:20:49.432Z,2.50
2022-09-30T08:23:19.772Z,2.40
2022-09-30T08:25:51.748Z,2.30
2022-09-30T08:28:21.935Z,2.30
2022-09-30T08:30:52.077Z,2.30
2022-09-30T08:33:22.319Z,2.30
2022-09-30T08:35:52.339Z,2.30
2022-09-30T08:38:22.601Z,2.20
2022-09-30T08:41:11.208Z,2.20
2022-09-30T08:43:52.489Z,2.20
2022-09-30T08:46:33.529Z,2.20
2022-09-30T08:49:13.771Z,2.20
2022-09-30T08:51:48.196Z,2.20
2022-09-30T08:54:21.528Z,2.20
2022-09-30T08:56:53.604Z,2.20
2022-09-30T08:59:32.236Z,2.20
2022-09-30T09:02:15.235Z,2.20
2022-09-30T09:04:49.080Z,2.30
2022-09-30T09:07:35.676Z,2.30
2022-09-30T09:10:21.544Z,2.30
2022-09-30T09:13:01.699Z,2.30
2022-09-30T09:15:52.700Z,2.20
2022-09-30T09:18:39.467Z,2.30
2022-09-30T09:21:23.792Z,2.40
2022-09-30T09:23:59.359Z,2.40
2022-09-30T09:26:33.032Z,2.30
2022-09-30T09:29:18.260Z,2.20
2022-09-30T09:31:48.888Z,2.20
2022-09-30T09:34:18.920Z,2.20
2022-09-30T09:37:10.944Z,2.10
2022-09-30T09:39:58.473Z,2.00
2022-09-30T09:42:42.745Z,2.00
2022-09-30T09:45:23.703Z,1.90
2022-09-30T09:47:57.886Z,1.90
2022-09-30T09:50:37.107Z,1.90
2022-09-30T09:53:24.686Z,1.90
2022-09-30T09:56:00.888Z,1.90
2022-09-30T09:58:31.090Z,1.90
2022-09-30T10:01:32.975Z,2.00
2022-09-30T10:04:16.256Z,1.90
2022-09-30T10:06:49.420Z,1.90
2022-09-30T10:09:34.991Z,1.90
2022-09-30T10:12:30.230Z,1.80
2022-09-30T10:15:22.869Z,1.80
2022-09-30T10:17:59.642Z,1.90
2022-09-30T10:20:34.953Z,1.80
2022-09-30T10:23:12.292Z,1.90
2022-09-30T10:25:42.545Z,1.90
2022-09-30T10:28:26.677Z,1.90
2022-09-30T10:31:01.030Z,1.90
2022-09-30T10:33:37.698Z,1.90
2022-09-30T10:36:23.932Z,1.90
2022-09-30T10:39:05.923Z,1.80
2022-09-30T10:41:39.300Z,1.80
2022-09-30T10:44:17.505Z,1.90
2022-09-30T10:46:50.458Z,2.00
2022-09-30T10:49:33.480Z,2.00
2022-09-30T10:52:05.368Z,1.90
2022-09-30T10:54:50.968Z,1.90
2022-09-30T10:57:25.663Z,1.90
2022-09-30T11:00:01.319Z,1.80
2022-09-30T11:02:37.263Z,1.70
2022-09-30T11:05:20.193Z,1.60
2022-09-30T11:07:55.962Z,1.60
2022-09-30T11:10:39.007Z,1.70
2022-09-30T11:13:19.587Z,1.60
2022-09-30T11:16:03.379Z,1.60
2022-09-30T11:18:40.651Z,1.70
2022-09-30T11:21:18.892Z,1.90
2022-09-30T11:23:55.262Z,1.90
2022-09-30T11:26:35.753Z,1.90
2022-09-30T11:29:18.236Z,1.90
2022-09-30T11:31:57.512Z,1.90
2022-09-30T11:34:42.366Z,2.00
2022-09-30T11:37:24.036Z,2.00
2022-09-30T11:40:33.000Z,2.10
2022-09-30T11:43:19.304Z,2.20
2022-09-30T11:46:05.876Z,2.30
2022-09-30T11:48:50.623Z,2.50
2022-09-30T11:51:27.372Z,2.60
2022-09-30T11:54:18.408Z,2.80
2022-09-30T11:56:57.614Z,2.90
2022-09-30T11:59:33.096Z,3.00
2022-09-30T12:02:06.597Z,3.10
2022-09-30T12:04:41.871Z,3.20
2022-09-30T12:07:18.471Z,3.30
2022-09-30T12:09:53.633Z,3.40
2022-09-30T12:12:24.237Z,3.50
2022-09-30T12:14:59.783Z,3.70
2022-09-30T12:17:34.083Z,3.90
2022-09-30T12:20:10.790Z,4.00
2022-09-30T12:22:44.078Z,4.10
2022-09-30T12:25:20.937Z,4.20
2022-09-30T12:27:57.272Z,4.40
2022-09-30T12:30:29.808Z,4.50
2022-09-30T12:33:25.811Z,4.70
2022-09-30T12:36:29.332Z,4.80
2022-09-30T12:39:37.880Z,5.00
2022-09-30T12:42:41.789Z,5.30
2022-09-30T12:45:38.220Z,5.50
2022-09-30T12:48:15.120Z,5.60
2022-09-30T12:50:50.763Z,5.70
2022-09-30T12:53:24.896Z,5.80
2022-09-30T12:55:55.875Z,5.80
2022-09-30T12:58:32.980Z,5.80
2022-09-30T13:01:07.794Z,5.90
2022-09-30T13:03:50.326Z,6.00
2022-09-30T13:06:22.262Z,6.10
2022-09-30T13:09:20.180Z,6.10
2022-09-30T13:11:51.035Z,6.20
2022-09-30T13:14:40.104Z,6.40
2022-09-30T13:17:36.905Z,6.50
2022-09-30T13:20:57.271Z,6.70
2022-09-30T13:23:41.033Z,6.90
2022-09-30T13:26:42.291Z,7.10
2022-09-30T13:29:40.552Z,7.30
2022-09-30T13:32:11.837Z,7.50
2022-09-30T13:34:59.518Z,7.60
2022-09-30T13:37:42.740Z,7.80
2022-09-30T13:40:43.243Z,8.00
2022-09-30T13:43:21.478Z,8.10
2022-09-30T13:45:56.143Z,8.30
2022-09-30T13:48:31.820Z,8.30
2022-09-30T13:51:06.500Z,8.40
2022-09-30T13:53:40.376Z,8.50
2022-09-30T13:56:16.410Z,8.50
2022-09-30T13:59:17.110Z,8.60
2022-09-30T14:02:08.055Z,8.80
2022-09-30T14:05:01.338Z,8.90
2022-09-30T14:07:42.396Z,9.10
2022-09-30T14:10:29.783Z,9.10
2022-09-30T14:13:17.599Z,9.20
2022-09-30T14:16:16.485Z,9.30
2022-09-30T14:19:17.654Z,9.40
2022-09-30T14:21:51.306Z,9.60
2022-09-30T14:24:26.674Z,9.70
2022-09-30T14:27:08.425Z,9.80
2022-09-30T14:29:45.883Z,9.90
2022-09-30T14:32:20.078Z,10.00
2022-09-30T14:34:52.766Z,10.10
2022-09-30T14:37:26.961Z,10.30
2022-09-30T14:39:57.435Z,10.40
2022-09-30T14:42:32.585Z,10.50
2022-09-30T14:45:06.400Z,10.60
2022-09-30T14:47:39.779Z,10.70
2022-09-30T14:50:17.359Z,10.80
2022-09-30T14:52:49.284Z,10.90
2022-09-30T14:55:26.137Z,11.00
2022-09-30T14:57:58.686Z,11.20
2022-09-30T15:00:33.307Z,11.30
2022-09-30T15:03:03.511Z,11.50
2022-09-30T15:05:38.962Z,11.60
2022-09-30T15:08:14.048Z,11.80
2022-09-30T15:10:50.486Z,11.90
2022-09-30T15:13:22.130Z,12.00
2022-09-30T15:15:52.210Z,12.10
2022-09-30T15:18:36.446Z,12.20
2022-09-30T15:21:15.069Z,12.40
2022-09-30T15:23:48.271Z,12.60
2022-09-30T15:26:18.742Z,12.80
2022-09-30T15:28:48.872Z,13.00
2022-09-30T15:31:25.587Z,13.10
2022-09-30T15:34:07.075Z,13.30
2022-09-30T15:36:39.869Z,13.50
2022-09-30T15:39:22.788Z,13.60
2022-09-30T15:41:53.925Z,13.80
2022-09-30T15:44:40.501Z,13.90
2022-09-30T15:47:12.849Z,14.10
2022-09-30T15:49:50.902Z,14.20
2022-09-30T15:52:38.422Z,14.40
2022-09-30T15:55:43.984Z,14.50
2022-09-30T15:58:38.260Z,14.60
2022-09-30T16:01:22.247Z,14.80
2022-09-30T16:03:57.559Z,15.00
2022-09-30T16:06:33.145Z,15.20
2022-09-30T16:09:09.170Z,15.30
2022-09-30T16:11:42.250Z,15.40
2022-09-30T16:14:20.689Z,15.80
2022-09-30T16:16:56.810Z,16.10
2022-09-30T16:19:27.665Z,16.60
2022-09-30T16:21:58.833Z,17.10
2022-09-30T16:24:50.460Z,17.30
2022-09-30T16:27:30.996Z,17.50
2022-09-30T16:30:01.685Z,17.70
2022-09-30T16:35:05.662Z,18.50
2022-09-30T16:37:36.143Z,18.50
2022-09-30T16:40:18.859Z,18.60
2022-09-30T16:42:48.966Z,18.80
2022-09-30T16:45:19.494Z,19.20
2022-09-30T16:47:50.551Z,19.20
2022-09-30T16:50:27.999Z,19.30
2022-09-30T16:52:58.133Z,19.50
2022-09-30T16:55:28.969Z,19.50
2022-09-30T16:58:00.114Z,19.60
2022-09-30T17:00:31.221Z,19.40
2022-09-30T17:03:01.691Z,19.70
2022-09-30T17:05:33.423Z,19.90
2022-09-30T17:08:04.375Z,19.80
2022-09-30T17:10:36.693Z,19.90
2022-09-30T17:13:06.745Z,19.70
2022-09-30T17:15:38.053Z,19.70
2022-09-30T17:18:10.627Z,19.80
2022-09-30T17:20:46.367Z,19.90
2022-09-30T17:23:16.326Z,20.30
2022-09-30T17:25:46.323Z,20.50
2022-09-30T17:28:16.804Z,20.60
2022-09-30T17:30:48.669Z,20.80
2022-09-30T17:33:20.022Z,20.80
2022-09-30T17:36:01.694Z,20.80
2022-09-30T17:38:32.174Z,20.70
2022-09-30T17:41:19.269Z,20.80
2022-09-30T17:43:49.331Z,20.70
2022-09-30T17:46:23.932Z,20.70
2022-09-30T17:48:59.053Z,20.70
2022-09-30T17:51:30.876Z,20.90
2022-09-30T17:54:01.117Z,21.10
2022-09-30T17:56:31.330Z,21.30
2022-09-30T17:59:02.559Z,21.30
2022-09-30T18:01:33.368Z,21.30
2022-09-30T18:04:04.062Z,21.40
2022-09-30T18:06:36.346Z,21.20
2022-09-30T18:09:06.440Z,21.10
2022-09-30T18:11:42.824Z,21.00
2022-09-30T18:14:14.941Z,21.10
2022-09-30T18:16:45.929Z,21.20
2022-09-30T18:19:16.142Z,21.30
2022-09-30T18:21:47.910Z,21.30
2022-09-30T18:24:18.065Z,21.40
2022-09-30T18:26:48.127Z,21.50
2022-09-30T18:29:18.145Z,21.50
2022-09-30T18:31:48.285Z,21.50
2022-09-30T18:34:19.355Z,21.40
2022-09-30T18:36:51.787Z,21.30
2022-09-30T18:39:22.093Z,21.50
2022-09-30T18:41:52.146Z,21.60
2022-09-30T18:44:22.171Z,21.70
2022-09-30T18:46:52.194Z,21.60
2022-09-30T18:49:22.817Z,21.60
2022-09-30T18:51:54.574Z,21.70
2022-09-30T18:54:25.655Z,22.10
2022-09-30T18:56:55.789Z,21.90
2022-09-30T18:59:25.769Z,22.00
2022-09-30T19:01:56.953Z,21.80
2022-09-30T19:04:27.031Z,21.50
2022-09-30T19:06:58.879Z,21.40
2022-09-30T19:09:28.998Z,21.40
2022-09-30T19:12:00.065Z,21.30
2022-09-30T19:14:31.309Z,21.30
2022-09-30T19:17:01.382Z,21.50
2022-09-30T19:19:31.529Z,21.70
2022-09-30T19:22:03.689Z,21.80
2022-09-30T19:24:33.627Z,21.80
2022-09-30T19:27:03.879Z,21.70
2022-09-30T19:29:34.495Z,21.70
2022-09-30T19:32:05.436Z,21.50
2022-09-30T19:34:36.107Z,21.30
2022-09-30T19:37:16.491Z,21.50
2022-09-30T19:39:48.407Z,21.50
2022-09-30T19:42:18.839Z,21.40
2022-09-30T19:44:48.786Z,21.10
2022-09-30T19:47:19.452Z,21.20
2022-09-30T19:49:49.454Z,21.00
2022-09-30T19:52:22.310Z,21.00
2022-09-30T19:54:56.871Z,20.90
2022-09-30T19:57:29.538Z,21.00
2022-09-30T20:00:02.855Z,21.30
2022-09-30T20:02:36.107Z,21.30
2022-09-30T20:05:06.303Z,21.40
2022-09-30T20:07:38.247Z,21.30
2022-09-30T20:10:09.417Z,21.10
2022-09-30T20:12:39.646Z,20.80
2022-09-30T20:15:28.788Z,20.70
2022-09-30T20:17:58.829Z,20.80
2022-09-30T20:20:37.712Z,20.60
2022-09-30T20:23:09.303Z,20.40
2022-09-30T20:25:39.371Z,20.30
2022-09-30T20:28:10.386Z,20.00
2022-09-30T20:30:46.104Z,19.80
2022-09-30T20:33:18.739Z,19.80
2022-09-30T20:35:50.437Z,19.60
2022-09-30T20:38:25.220Z,19.60
2022-09-30T20:40:58.733Z,19.50
2022-09-30T20:43:30.833Z,19.30
2022-09-30T20:46:02.335Z,19.10
2022-09-30T20:48:35.267Z,18.80
2022-09-30T20:51:08.492Z,18.90
2022-09-30T20:53:45.542Z,18.80
2022-09-30T20:56:18.403Z,18.70
2022-09-30T20:58:48.816Z,18.50
2022-09-30T21:01:20.658Z,18.40
2022-09-30T21:03:52.536Z,18.50
2022-09-30T21:06:26.826Z,18.80
2022-09-30T21:09:01.806Z,18.70
2022-09-30T21:11:32.072Z,18.60
2022-09-30T21:14:02.424Z,18.40
2022-09-30T21:16:32.504Z,18.10
2022-09-30T21:19:02.589Z,18.00
2022-09-30T21:21:33.083Z,17.80
2022-09-30T21:24:05.599Z,17.60
2022-09-30T21:26:36.155Z,17.40
2022-09-30T21:29:06.263Z,17.20
2022-09-30T21:31:38.567Z,17.10
2022-09-30T21:34:09.110Z,16.80
2022-09-30T21:36:39.521Z,16.60
2022-09-30T21:39:11.769Z,16.40
2022-09-30T21:41:41.967Z,16.30
2022-09-30T21:44:11.984Z,16.10
2022-09-30T21:46:46.062Z,15.80
2022-09-30T21:49:20.273Z,15.60
2022-09-30T21:51:51.886Z,15.40
2022-09-30T21:54:24.245Z,15.20
2022-09-30T21:56:54.257Z,15.10
2022-09-30T21:59:26.148Z,14.90
2022-09-30T22:01:56.187Z,14.80
2022-09-30T22:04:26.472Z,14.60
2022-09-30T22:06:56.600Z,14.50
2022-09-30T22:09:28.534Z,14.40
2022-09-30T22:11:59.425Z,14.20
2022-09-30T22:14:29.448Z,14.20
2022-09-30T22:17:00.088Z,14.00
2022-09-30T22:19:30.348Z,13.90
2022-09-30T22:22:01.715Z,13.80
2022-09-30T22:24:33.585Z,13.70
2022-09-30T22:27:04.333Z,13.50
2022-09-30T22:29:34.878Z,13.40
2022-09-30T22:32:04.965Z,13.30
2022-09-30T22:34:57.592Z,13.10
2022-09-30T22:37:44.882Z,13.00
2022-09-30T22:40:16.762Z,12.80
2022-09-30T22:42:48.952Z,12.70
2022-09-30T22:45:19.304Z,12.60
2022-09-30T22:47:49.359Z,12.50
2022-09-30T22:50:20.836Z,12.40
2022-09-30T22:52:51.964Z,12.20
2022-09-30T22:55:25.566Z,12.10
2022-09-30T22:57:55.946Z,11.90
2022-09-30T23:00:26.642Z,11.80
2022-09-30T23:02:57.264Z,11.70
2022-09-30T23:05:27.520Z,11.50
2022-09-30T23:07:57.861Z,11.50
2022-09-30T23:10:29.640Z,11.30
2022-09-30T23:13:00.158Z,11.20
2022-09-30T23:15:30.343Z,11.10
2022-09-30T23:18:01.301Z,11.00
2022-09-30T23:20:33.410Z,10.90
2022-09-30T23:23:03.605Z,10.80
2022-09-30T23:25:35.998Z,10.60
2022-09-30T23:28:09.639Z,10.50
2022-09-30T23:30:40.070Z,10.30
2022-09-30T23:33:12.994Z,10.20
2022-09-30T23:35:48.282Z,10.20
2022-09-30T23:38:20.024Z,10.10
2022-09-30T23:40:51.806Z,10.00
2022-09-30T23:43:22.811Z,10.00
2022-09-30T23:45:52.916Z,9.90
2022-09-30T23:48:23.974Z,9.90
2022-09-30T23:50:54.362Z,9.90
2022-09-30T23:53:25.495Z,9.90
2022-09-30T23:56:00.936Z,9.80
2022-09-30T23:58:31.769Z,9.80
